^^
Grace C. Lehan Memorial Weather Station Historical Data
Daily Summary for May 1, 2022 Units:  English    Metric   Both
Daily Weekly Monthly Yearly
  High: Low: Average:
Temperature: 82.2 °F 68.7 °F 74.7 °F
Dew Point: 70.5 °F 64.4 °F 68.5 °F
Humidity: 95% 65.5% 82%
Wind Speed: 0.7mph 0mph 0mph
Wind Gust: 4mph - -
Wind- - SSW
Pressure: 30.02 in 29.80 in -
Precipitation: 0.25 in    
 
 
Tabular Data for May 1, 2022
Time Temperature Dew Point Pressure Wind Wind Speed Wind Gust Humidity Rainfall Rate (Hourly) solar
00:00 76.1 °F 64.4 °F 30.02 in Calm     67% 0.00 in 0 W/m2
00:09 75.9 °F 65.1 °F 30.02 in Calm     69% 0.00 in 0 W/m2
00:14 75.8 °F 65.5 °F 30.01 in Calm     70.5% 0.00 in 0 W/m2
00:19 75.5 °F 65.5 °F 30.01 in Calm     71.2% 0.00 in 0 W/m2
00:24 75.2 °F 65.6 °F 30.01 in Calm     72% 0.00 in 0 W/m2
00:29 74.9 °F 65.3 °F 30.01 in Calm     72.1% 0.00 in 0 W/m2
00:34 74.6 °F 65.7 °F 30.01 in Calm     73.6% 0.00 in 0 W/m2
00:39 74.4 °F 65.8 °F 30.01 in Calm     74.4% 0.00 in 0 W/m2
00:44 74.2 °F 65.8 °F 30.01 in Calm     75% 0.00 in 0 W/m2
00:49 74 °F 66 °F 30.01 in Calm     76% 0.00 in 0 W/m2
00:54 73.8 °F 66.1 °F 30.00 in Calm     76.8% 0.00 in 0 W/m2
00:59 73.7 °F 66.3 °F 30.00 in Calm     77.6% 0.00 in 0 W/m2
01:04 73.6 °F 66.2 °F 30.00 in Calm     77.8% 0.00 in 0 W/m2
01:09 73.5 °F 66.2 °F 30.00 in Calm     78% 0.00 in 0 W/m2
01:14 73.4 °F 66.1 °F 30.00 in Calm     78% 0.00 in 0 W/m2
01:19 73.3 °F 66.3 °F 30.00 in Calm     78.9% 0.00 in 0 W/m2
01:24 73.2 °F 66.3 °F 29.99 in Calm     79% 0.00 in 0 W/m2
01:29 73.1 °F 66.2 °F 30.00 in Calm     79% 0.00 in 0 W/m2
01:34 73.1 °F 66.4 °F 30.00 in Calm     79.6% 0.00 in 0 W/m2
01:39 73.1 °F 66.4 °F 30.00 in Calm     79.5% 0.00 in 0 W/m2
01:44 73 °F 66.5 °F 30.00 in Calm     80% 0.00 in 0 W/m2
01:49 73 °F 66.5 °F 30.00 in Calm     80% 0.00 in 0 W/m2
01:54 72.9 °F 66.4 °F 30.00 in Calm     80% 0.00 in 0 W/m2
01:59 72.9 °F 66.4 °F 29.99 in Calm     80% 0.00 in 0 W/m2
02:04 72.9 °F 66.4 °F 29.99 in Calm     80% 0.00 in 0 W/m2
02:09 72.9 °F 66.4 °F 29.99 in Calm     80% 0.00 in 0 W/m2
02:14 72.9 °F 66.4 °F 29.99 in Calm     80% 0.00 in 0 W/m2
02:19 72.9 °F 66.4 °F 29.99 in Calm     80% 0.00 in 0 W/m2
02:24 72.9 °F 66.3 °F 29.99 in Calm     80% 0.00 in 0 W/m2
02:29 72.8 °F 66.6 °F 29.99 in Calm     80.9% 0.00 in 0 W/m2
02:34 72.9 °F 66.8 °F 29.99 in Calm     81.2% 0.00 in 0 W/m2
02:39 72.9 °F 67 °F 29.99 in Calm     81.7% 0.01 in 0 W/m2
02:44 72.9 °F 67.3 °F 29.99 in Calm     82.6% 0.01 in 0 W/m2
02:49 72.8 °F 67.5 °F 29.99 in Calm     83.5% 0.01 in 0 W/m2
02:54 72.7 °F 67.5 °F 29.99 in Calm     83.9% 0.02 in 0 W/m2
02:59 72.5 °F 67.4 °F 29.99 in Calm     84.2% 0.03 in 0 W/m2
03:04 72.3 °F 67.6 °F 30.00 in Calm     85% 0.04 in 0 W/m2
03:09 72.2 °F 67.7 °F 29.99 in Calm     85.9% 0.05 in 0 W/m2
03:14 72.1 °F 67.9 °F 29.99 in Calm     86.8% 0.06 in 0 W/m2
03:19 72 °F 68.1 °F 30.00 in Calm     87.5% 0.06 in 0 W/m2
03:24 71.9 °F 68.1 °F 30.00 in Calm     88% 0.07 in 0 W/m2
03:29 71.7 °F 68 °F 29.99 in Calm     88.1% 0.10 in 0 W/m2
03:34 71.5 °F 68.1 °F 29.99 in Calm     89% 0.11 in 0 W/m2
03:39 71.3 °F 68 °F 29.99 in Calm     89.3% 0.12 in 0 W/m2
03:44 71.2 °F 68.1 °F 29.99 in Calm     90% 0.13 in 0 W/m2
03:49 71.1 °F 68 °F 29.99 in Calm     90% 0.14 in 0 W/m2
03:54 71 °F 67.9 °F 29.99 in Calm     90% 0.14 in 0 W/m2
03:59 70.9 °F 68 °F 29.99 in Calm     90.6% 0.14 in 0 W/m2
04:00 70.9 °F 68.2 °F 29.99 in Calm     91% 0.14 in 0 W/m2
04:09 70.8 °F 68.1 °F 29.99 in Calm     91% 0.11 in 0 W/m2
04:14 70.8 °F 68.1 °F 29.99 in Calm     91.2% 0.11 in 0 W/m2
04:19 70.8 °F 68.4 °F 30.00 in Calm     92% 0.11 in 0 W/m2
04:24 70.8 °F 68.3 °F 30.00 in Calm     92% 0.12 in 0 W/m2
04:29 70.7 °F 68.3 °F 30.00 in Calm     92% 0.12 in 0 W/m2
04:34 70.8 °F 68.7 °F 30.00 in Calm     92.9% 0.12 in 0 W/m2
04:39 71 °F 68.8 °F 30.00 in Calm     93% 0.06 in 0 W/m2
04:44 71.1 °F 68.9 °F 30.00 in Calm     93% 0.07 in 0 W/m2
04:49 71.1 °F 69 °F 30.00 in Calm     93% 0.08 in 0 W/m2
04:54 71.1 °F 69 °F 30.00 in Calm     93% 0.09 in 0 W/m2
04:59 71 °F 68.9 °F 30.00 in Calm     93% 0.10 in 0 W/m2
05:04 71 °F 68.9 °F 29.99 in Calm     93% 0.10 in 0 W/m2
05:09 70.9 °F 68.8 °F 29.99 in Calm     93.1% 0.07 in 0 W/m2
05:14 70.8 °F 69 °F 29.99 in Calm     94% 0.08 in 0 W/m2
05:19 70.8 °F 69 °F 30.00 in Calm   2 mph 94% 0.08 in 0 W/m2
05:24 70.7 °F 68.7 °F 30.00 in West 0.1 mph 2 mph 93.3% 0.08 in 0 W/m2
05:29 70.6 °F 68.5 °F 30.00 in Calm   2 mph 93% 0.08 in 0 W/m2
05:34 70.5 °F 68.6 °F 29.99 in Calm   2 mph 93.6% 0.08 in 0 W/m2
05:39 70.4 °F 68.6 °F 29.99 in Calm     94% 0.07 in 0 W/m2
05:44 70.2 °F 68.4 °F 29.99 in Calm     94% 0.08 in 0 W/m2
05:49 70.1 °F 68.2 °F 29.99 in Calm     93.9% 0.09 in 0 W/m2
05:54 69.9 °F 68 °F 29.99 in Calm     93.7% 0.10 in 0 W/m2
05:59 69.8 °F 68 °F 29.99 in Calm     94% 0.10 in 0 W/m2
06:04 69.7 °F 67.9 °F 29.99 in Calm     94% 0.10 in 0 W/m2
06:09 69.6 °F 67.8 °F 29.99 in Calm     94% 0.05 in 0 W/m2
06:14 69.5 °F 67.7 °F 29.99 in Calm     94% 0.05 in 0 W/m2
06:19 69.4 °F 67.6 °F 29.99 in Calm     94% 0.05 in 0 W/m2
06:24 69.2 °F 67.4 °F 29.99 in Calm     94% 0.05 in 0 W/m2
06:29 69.1 °F 67.3 °F 29.99 in Calm     94% 0.05 in 0 W/m2
06:34 69 °F 67.2 °F 29.99 in Calm     94% 0.05 in 0 W/m2
06:39 69 °F 67.2 °F 29.99 in Calm     94% 0.03 in 5 W/m2
06:44 68.9 °F 67.1 °F 29.99 in Calm     94% 0.03 in 5 W/m2
06:49 68.8 °F 67 °F 29.99 in Calm     94% 0.03 in 9 W/m2
06:54 68.7 °F 66.9 °F 29.99 in Calm     94% 0.03 in 12 W/m2
06:59 68.7 °F 66.9 °F 29.99 in Calm     94% 0.03 in 19 W/m2
07:04 68.7 °F 66.9 °F 29.99 in Calm     94% 0.03 in 21 W/m2
07:09 68.7 °F 66.9 °F 29.99 in Calm     94% 0.00 in 21 W/m2
07:14 68.8 °F 67.3 °F 29.99 in Calm     94.8% 0.00 in 28 W/m2
07:19 69 °F 67.5 °F 29.98 in Calm     95% 0.00 in 32 W/m2
07:24 69 °F 67.5 °F 29.98 in Calm     95% 0.00 in 35 W/m2
07:29 69.1 °F 67.6 °F 29.98 in Calm     95% 0.00 in 40 W/m2
07:34 69.2 °F 67.7 °F 29.98 in Calm     95% 0.00 in 44 W/m2
07:39 69.2 °F 67.7 °F 29.98 in Calm     95% 0.00 in 53 W/m2
07:44 69.2 °F 67.7 °F 29.98 in Calm     95% 0.00 in 53 W/m2
07:49 69.2 °F 67.7 °F 29.98 in Calm     95% 0.00 in 42 W/m2
07:54 69.3 °F 67.8 °F 29.98 in Calm     95% 0.00 in 49 W/m2
07:59 69.4 °F 67.9 °F 29.98 in Calm     95% 0.00 in 67 W/m2
08:09 69.7 °F 68.2 °F 29.98 in Calm     95% 0.00 in 56 W/m2
08:14 69.7 °F 68.2 °F 29.98 in Calm     95% 0.00 in 54 W/m2
08:19 69.8 °F 68.3 °F 29.98 in Calm     95% 0.00 in 44 W/m2
08:24 69.9 °F 68.4 °F 29.98 in Calm     95% 0.00 in 51 W/m2
08:29 69.9 °F 68.4 °F 29.98 in Calm     95% 0.00 in 51 W/m2
08:34 70 °F 68.5 °F 29.98 in Calm     95% 0.00 in 51 W/m2
08:39 69.9 °F 68.4 °F 29.97 in Calm     95% 0.00 in 72 W/m2
08:44 69.7 °F 68.2 °F 29.97 in Calm     95% 0.00 in 93 W/m2
08:49 69.8 °F 68.3 °F 29.97 in Calm     95% 0.00 in 95 W/m2
08:54 69.9 °F 68.4 °F 29.97 in Calm     95% 0.00 in 95 W/m2
08:59 70.1 °F 68.6 °F 29.97 in Calm     95% 0.00 in 86 W/m2
09:04 70.2 °F 68.7 °F 29.96 in Calm     95% 0.00 in 79 W/m2
09:09 70.3 °F 68.8 °F 29.96 in Calm     95% 0.00 in 111 W/m2
09:14 70.4 °F 68.9 °F 29.96 in Calm     95% 0.00 in 176 W/m2
09:19 70.7 °F 69.2 °F 29.96 in Calm     95% 0.00 in 193 W/m2
09:24 70.8 °F 69.3 °F 29.96 in Calm     95% 0.00 in 163 W/m2
09:29 70.8 °F 69.3 °F 29.96 in Calm     95% 0.00 in 278 W/m2
09:34 71.1 °F 69.6 °F 29.95 in Calm     95% 0.00 in 443 W/m2
09:39 71.6 °F 70.1 °F 29.95 in Calm     95% 0.00 in 473 W/m2
09:44 71.7 °F 70.2 °F 29.95 in Calm     95% 0.00 in 355 W/m2
09:49 71.9 °F 70.1 °F 29.95 in Calm     94% 0.00 in 369 W/m2
09:54 72 °F 69.8 °F 29.95 in Calm     93% 0.00 in 443 W/m2
09:59 72.3 °F 70.1 °F 29.94 in Calm     92.8% 0.00 in 527 W/m2
10:04 72.7 °F 70.2 °F 29.94 in Calm     91.7% 0.00 in 420 W/m2
10:09 73.2 °F 70.2 °F 29.94 in Calm     90.4% 0.00 in 385 W/m2
10:14 73.5 °F 69.9 °F 29.94 in Calm     88.6% 0.00 in 322 W/m2
10:19 73.9 °F 70.2 °F 29.94 in Calm     88.2% 0.00 in 355 W/m2
10:24 74.3 °F 70.2 °F 29.94 in Calm     87.1% 0.00 in 359 W/m2
10:29 74.6 °F 70.1 °F 29.94 in Calm     86.1% 0.00 in 369 W/m2
10:34 74.6 °F 69.8 °F 29.94 in Calm     85.1% 0.00 in 394 W/m2
10:39 74.7 °F 69.9 °F 29.93 in Calm     85% 0.00 in 490 W/m2
10:44 75 °F 70.2 °F 29.93 in Calm   1 mph 85% 0.00 in 582 W/m2
10:49 75.1 °F 69.2 °F 29.93 in Calm   1 mph 81.7% 0.00 in 612 W/m2
10:54 75.7 °F 70.1 °F 29.93 in Calm   1 mph 82.9% 0.00 in 657 W/m2
10:59 76.3 °F 70.5 °F 29.93 in Calm   1 mph 82.3% 0.00 in 647 W/m2
11:04 77 °F 70.2 °F 29.93 in Calm   2 mph 79.7% 0.00 in 526 W/m2
11:09 77.2 °F 69.9 °F 29.93 in Calm   2 mph 78.2% 0.00 in 487 W/m2
11:14 77.6 °F 70.3 °F 29.93 in SSW 0.1 mph 2 mph 78.4% 0.00 in 522 W/m2
11:19 77.9 °F 70.1 °F 29.93 in Calm   2 mph 77.1% 0.00 in 737 W/m2
11:24 78 °F 69.3 °F 29.93 in Calm   2 mph 74.6% 0.00 in 728 W/m2
11:29 78.1 °F 70.1 °F 29.93 in Calm   2 mph 76.3% 0.00 in 1058 W/m2
11:34 78.6 °F 70.1 °F 29.92 in Calm   2 mph 75.2% 0.00 in 905 W/m2
11:39 78.8 °F 69.6 °F 29.92 in Calm     73.3% 0.00 in 543 W/m2
11:44 78.8 °F 69.3 °F 29.92 in SSE 0.1 mph 2 mph 72.7% 0.00 in 506 W/m2
11:49 78.7 °F 68.8 °F 29.92 in SSE 0.1 mph 2 mph 71.5% 0.00 in 469 W/m2
11:54 78.4 °F 69 °F 29.92 in Calm   2 mph 72.8% 0.00 in 624 W/m2
11:59 78.8 °F 70.3 °F 29.92 in Calm   2 mph 75.1% 0.00 in 610 W/m2
12:09 79.9 °F 70.2 °F 29.91 in Calm     72.3% 0.00 in 559 W/m2
12:14 80.1 °F 69.3 °F 29.91 in SE 0.1 mph 2 mph 69.7% 0.00 in 721 W/m2
12:19 79.8 °F 68 °F 29.91 in ESE 0.7 mph 4 mph 67.2% 0.00 in 840 W/m2
12:24 79.8 °F 69 °F 29.91 in SSE 0.1 mph 4 mph 69.6% 0.00 in 677 W/m2
12:29 80.1 °F 68.7 °F 29.90 in Calm   4 mph 68.4% 0.00 in 849 W/m2
12:34 80.7 °F 69.6 °F 29.90 in Calm   4 mph 69.2% 0.00 in 849 W/m2
12:39 81.2 °F 69.4 °F 29.90 in Calm   1 mph 67.3% 0.00 in 1014 W/m2
12:44 81.6 °F 69 °F 29.90 in Calm   1 mph 65.7% 0.00 in 1014 W/m2
12:49 81.9 °F 69.4 °F 29.90 in South 0.1 mph 3 mph 66.1% 0.00 in 592 W/m2
12:54 82.1 °F 70.3 °F 29.90 in Calm   3 mph 67.6% 0.00 in 775 W/m2
12:59 82.2 °F 70.3 °F 29.90 in Calm   3 mph 67.3% 0.00 in 399 W/m2
13:04 82.1 °F 69.6 °F 29.90 in Calm   3 mph 65.9% 0.00 in 313 W/m2
13:09 81.8 °F 69.1 °F 29.90 in Calm     65.5% 0.00 in 292 W/m2
13:14 81.5 °F 69 °F 29.90 in Calm   1 mph 66% 0.00 in 262 W/m2
13:19 81.2 °F 69 °F 29.90 in Calm   2 mph 66.6% 0.00 in 236 W/m2
13:24 81 °F 69.5 °F 29.89 in Calm   2 mph 68% 0.00 in 230 W/m2
13:29 80.8 °F 69.7 °F 29.89 in Calm   2 mph 69.2% 0.00 in 223 W/m2
13:34 80.6 °F 69.7 °F 29.89 in Calm   2 mph 69.4% 0.00 in 204 W/m2
13:39 80.4 °F 69.5 °F 29.89 in Calm     69.4% 0.00 in 192 W/m2
13:44 80.2 °F 69.3 °F 29.89 in South 0.1 mph 2 mph 69.3% 0.00 in 188 W/m2
13:49 80.1 °F 69.3 °F 29.89 in Calm   2 mph 69.7% 0.00 in 193 W/m2
13:54 80.1 °F 69.5 °F 29.88 in Calm   2 mph 70.2% 0.00 in 318 W/m2
13:59 80.2 °F 69.7 °F 29.88 in SSW 0.2 mph 2 mph 70.4% 0.00 in 350 W/m2
14:04 80.4 °F 69.9 °F 29.88 in SW 0.1 mph 3 mph 70.5% 0.00 in 360 W/m2
14:09 80.5 °F 69.3 °F 29.88 in Calm   3 mph 68.7% 0.00 in 387 W/m2
14:14 80.7 °F 69.1 °F 29.88 in Calm   3 mph 67.9% 0.00 in 411 W/m2
14:19 80.9 °F 69.9 °F 29.88 in Calm   3 mph 69.3% 0.00 in 325 W/m2
14:24 80.9 °F 68.9 °F 29.88 in Calm   3 mph 66.9% 0.00 in 244 W/m2
14:29 80.8 °F 68.9 °F 29.87 in Calm   3 mph 67.1% 0.00 in 202 W/m2
14:34 80.7 °F 68.4 °F 29.87 in Calm   3 mph 66.3% 0.00 in 149 W/m2
14:39 80.5 °F 68.6 °F 29.87 in Calm   1 mph 67.2% 0.00 in 118 W/m2
14:44 80.4 °F 69.1 °F 29.87 in SW 0.1 mph 2 mph 68.5% 0.00 in 97 W/m2
14:49 80.3 °F 68.8 °F 29.87 in Calm   2 mph 68% 0.00 in 109 W/m2
14:54 80.2 °F 68.8 °F 29.87 in Calm   2 mph 68.3% 0.00 in 128 W/m2
14:59 80.2 °F 68.9 °F 29.86 in Calm   2 mph 68.6% 0.00 in 148 W/m2
15:04 80.1 °F 68.8 °F 29.86 in Calm   2 mph 68.5% 0.00 in 162 W/m2
15:09 80.1 °F 68.6 °F 29.86 in Calm     68% 0.00 in 162 W/m2
15:14 80.2 °F 68.8 °F 29.86 in Calm     68.3% 0.00 in 146 W/m2
15:19 80.2 °F 68.6 °F 29.86 in Calm     67.9% 0.00 in 146 W/m2
15:24 80.2 °F 68.8 °F 29.86 in Calm     68.4% 0.00 in 176 W/m2
15:29 80.1 °F 68.6 °F 29.86 in Calm     67.9% 0.00 in 221 W/m2
15:34 80.2 °F 69 °F 29.86 in Calm     68.7% 0.00 in 213 W/m2
15:39 80.3 °F 69.2 °F 29.86 in SW 0.1 mph 3 mph 69% 0.00 in 146 W/m2
15:44 80.3 °F 69.3 °F 29.86 in Calm   3 mph 69.2% 0.00 in 100 W/m2
15:49 80.3 °F 69.5 °F 29.86 in Calm   3 mph 69.7% 0.00 in 81 W/m2
15:54 80.2 °F 69.1 °F 29.86 in Calm   3 mph 69% 0.00 in 67 W/m2
15:59 79.9 °F 69.1 °F 29.86 in Calm   3 mph 69.6% 0.00 in 60 W/m2
16:00 79.8 °F 69.2 °F 29.86 in Calm   3 mph 70% 0.00 in 62 W/m2
16:09 79.2 °F 69.1 °F 29.85 in SW 0.1 mph 2 mph 71.4% 0.00 in 90 W/m2
16:14 78.8 °F 69.2 °F 29.85 in Calm   2 mph 72.5% 0.00 in 90 W/m2
16:19 78.5 °F 69.3 °F 29.85 in Calm   2 mph 73.5% 0.00 in 79 W/m2
16:24 78.3 °F 69.5 °F 29.85 in Calm   2 mph 74.5% 0.00 in 93 W/m2
16:29 78.2 °F 69.6 °F 29.85 in Calm   2 mph 75% 0.00 in 102 W/m2
16:34 78.2 °F 69.8 °F 29.85 in Calm   2 mph 75.4% 0.00 in 156 W/m2
16:39 78.1 °F 69.8 °F 29.84 in Calm     75.5% 0.00 in 176 W/m2
16:44 78.1 °F 69.6 °F 29.84 in Calm     75.1% 0.00 in 202 W/m2
16:49 78.3 °F 69.9 °F 29.83 in Calm     75.5% 0.00 in 202 W/m2
16:54 78.5 °F 70.2 °F 29.83 in Calm     75.8% 0.00 in 195 W/m2
16:59 78.7 °F 70.2 °F 29.83 in Calm   1 mph 75.3% 0.00 in 186 W/m2
17:04 78.9 °F 70.3 °F 29.83 in Calm   1 mph 75% 0.00 in 174 W/m2
17:09 79 °F 70.2 °F 29.83 in SW 0.2 mph 3 mph 74.4% 0.00 in 169 W/m2
17:14 79.2 °F 70.4 °F 29.83 in SW 0.1 mph 3 mph 74.4% 0.00 in 135 W/m2
17:19 79.3 °F 70.2 °F 29.83 in Calm   3 mph 73.8% 0.00 in 125 W/m2
17:24 79.3 °F 69.3 °F 29.82 in Calm   3 mph 71.5% 0.00 in 95 W/m2
17:29 79.3 °F 69.2 °F 29.82 in Calm   3 mph 71.2% 0.00 in 62 W/m2
17:34 79.5 °F 69.5 °F 29.82 in Calm   3 mph 71.7% 0.00 in 54 W/m2
17:39 79.6 °F 69.1 °F 29.82 in Calm     70.4% 0.00 in 79 W/m2
17:44 79.8 °F 69.2 °F 29.81 in Calm     70.2% 0.00 in 77 W/m2
17:49 79.9 °F 69.2 °F 29.81 in Calm   1 mph 69.8% 0.00 in 53 W/m2
17:54 79.9 °F 68.9 °F 29.82 in Calm   1 mph 69.2% 0.00 in 70 W/m2
17:59 80 °F 69.3 °F 29.82 in Calm   1 mph 70% 0.00 in 88 W/m2
18:04 80.1 °F 69.8 °F 29.82 in Calm   1 mph 70.9% 0.00 in 109 W/m2
18:09 80.2 °F 69.6 °F 29.82 in Calm   1 mph 70% 0.00 in 65 W/m2
18:14 80.3 °F 69.6 °F 29.82 in Calm   1 mph 70% 0.00 in 21 W/m2
18:19 80.1 °F 69.5 °F 29.81 in Calm   1 mph 70% 0.00 in 19 W/m2
18:24 79.9 °F 69.4 °F 29.82 in Calm   1 mph 70.4% 0.00 in 23 W/m2
18:29 79.6 °F 69.4 °F 29.82 in Calm   1 mph 71% 0.00 in 40 W/m2
18:34 79.4 °F 69.4 °F 29.81 in Calm   1 mph 71.7% 0.00 in 44 W/m2
18:39 79.2 °F 69.4 °F 29.81 in Calm   2 mph 72% 0.00 in 39 W/m2
18:44 79.2 °F 69.4 °F 29.81 in Calm   2 mph 72% 0.00 in 39 W/m2
18:49 79.2 °F 69.4 °F 29.81 in Calm   2 mph 72% 0.00 in 33 W/m2
18:54 79.2 °F 69.5 °F 29.81 in Calm   2 mph 72.2% 0.00 in 30 W/m2
18:59 79.1 °F 69.4 °F 29.81 in Calm   2 mph 72.2% 0.00 in 26 W/m2
19:04 79.1 °F 69.7 °F 29.81 in Calm   2 mph 73% 0.00 in 26 W/m2
19:09 78.9 °F 69.5 °F 29.81 in Calm     73% 0.00 in 25 W/m2
19:14 78.8 °F 69.6 °F 29.81 in SW 0.1 mph 3 mph 73.5% 0.00 in 23 W/m2
19:19 78.6 °F 69.6 °F 29.81 in Calm   3 mph 74% 0.00 in 19 W/m2
19:24 78.5 °F 69.7 °F 29.81 in SW 0.1 mph 3 mph 74.6% 0.00 in 19 W/m2
19:29 78.3 °F 69.7 °F 29.80 in Calm   3 mph 75% 0.00 in 19 W/m2
19:34 78.2 °F 69.6 °F 29.80 in Calm   3 mph 75% 0.00 in 18 W/m2
19:39 78 °F 69.8 °F 29.80 in Calm     76% 0.00 in 16 W/m2
19:44 77.7 °F 69.6 °F 29.80 in Calm     76% 0.00 in 12 W/m2
19:49 77.4 °F 69.3 °F 29.80 in Calm     76% 0.00 in 11 W/m2
19:54 77.2 °F 69.4 °F 29.80 in Calm     77% 0.00 in 7 W/m2
19:59 76.8 °F 69.4 °F 29.80 in Calm     77.8% 0.00 in 5 W/m2
20:00 76.7 °F 69.3 °F 29.80 in Calm     78% 0.00 in 0 W/m2
20:09 76.3 °F 69.4 °F 29.80 in Calm     79% 0.00 in 0 W/m2
20:14 76.1 °F 69.2 °F 29.80 in Calm     79.2% 0.00 in 0 W/m2
20:19 75.9 °F 69.3 °F 29.80 in Calm     80% 0.00 in 0 W/m2
20:24 75.6 °F 69.2 °F 29.81 in Calm     80.5% 0.00 in 0 W/m2
20:29 75.4 °F 69.2 °F 29.81 in Calm     81% 0.00 in 0 W/m2
20:34 75.2 °F 69.1 °F 29.81 in Calm     81.5% 0.00 in 0 W/m2
20:39 75 °F 69.1 °F 29.81 in Calm     82% 0.00 in 0 W/m2
20:44 74.8 °F 69.1 °F 29.81 in Calm     82.6% 0.00 in 0 W/m2
20:49 74.6 °F 69.1 °F 29.81 in Calm     83% 0.00 in 0 W/m2
20:54 74.4 °F 68.9 °F 29.81 in Calm     83% 0.00 in 0 W/m2
20:59 74.2 °F 69 °F 29.82 in Calm     83.8% 0.00 in 0 W/m2
21:04 74 °F 68.9 °F 29.81 in Calm     84% 0.00 in 0 W/m2
21:09 73.8 °F 68.7 °F 29.82 in Calm     84% 0.00 in 0 W/m2
21:14 73.6 °F 68.8 °F 29.82 in Calm     84.9% 0.00 in 0 W/m2
21:19 73.5 °F 68.7 °F 29.82 in Calm     85% 0.00 in 0 W/m2
21:24 73.3 °F 68.6 °F 29.82 in Calm     85.3% 0.00 in 0 W/m2
21:29 73.1 °F 68.7 °F 29.82 in Calm     86% 0.00 in 0 W/m2
21:34 73.1 °F 69 °F 29.82 in Calm     87% 0.00 in 0 W/m2
21:39 73 °F 68.9 °F 29.82 in Calm     87% 0.00 in 0 W/m2
21:44 72.8 °F 68.7 °F 29.82 in Calm     87% 0.00 in 0 W/m2
21:49 72.7 °F 68.6 °F 29.82 in Calm     87% 0.00 in 0 W/m2
21:54 72.5 °F 68.7 °F 29.81 in Calm     88% 0.00 in 0 W/m2
21:59 72.3 °F 68.5 °F 29.81 in Calm     88% 0.00 in 0 W/m2
22:04 72.1 °F 68.4 °F 29.81 in Calm     88% 0.00 in 0 W/m2
22:09 72 °F 68.2 °F 29.81 in Calm     88% 0.00 in 0 W/m2
22:14 71.8 °F 68.4 °F 29.81 in Calm     88.9% 0.00 in 0 W/m2
22:19 71.7 °F 68.3 °F 29.81 in Calm     89% 0.00 in 0 W/m2
22:24 71.6 °F 68.2 °F 29.81 in Calm     89% 0.00 in 0 W/m2
22:29 71.5 °F 68.1 °F 29.81 in Calm     89% 0.00 in 0 W/m2
22:34 71.4 °F 68 °F 29.81 in Calm     89% 0.00 in 0 W/m2
22:39 71.3 °F 67.8 °F 29.81 in Calm     89% 0.00 in 0 W/m2
22:44 71.1 °F 67.8 °F 29.81 in Calm     89.3% 0.00 in 0 W/m2
22:49 71 °F 67.8 °F 29.80 in Calm     89.7% 0.00 in 0 W/m2
22:54 70.9 °F 67.8 °F 29.81 in Calm     90% 0.00 in 0 W/m2
22:59 70.8 °F 67.7 °F 29.81 in Calm     90% 0.00 in 0 W/m2
23:04 70.7 °F 67.7 °F 29.80 in Calm     90.3% 0.00 in 0 W/m2
23:09 70.6 °F 67.8 °F 29.80 in Calm     91% 0.00 in 0 W/m2
23:14 70.4 °F 67.7 °F 29.81 in Calm     91% 0.00 in 0 W/m2
23:19 70.4 °F 67.6 °F 29.81 in Calm     91% 0.00 in 0 W/m2
23:24 70.3 °F 67.5 °F 29.81 in Calm     91% 0.00 in 0 W/m2
23:29 70.2 °F 67.4 °F 29.81 in Calm     91% 0.00 in 0 W/m2
23:34 70.1 °F 67.6 °F 29.81 in Calm     91.9% 0.00 in 0 W/m2
23:39 70 °F 67.6 °F 29.81 in Calm     92% 0.00 in 0 W/m2
23:44 69.9 °F 67.5 °F 29.81 in Calm     92% 0.00 in 0 W/m2
23:49 69.9 °F 67.5 °F 29.81 in Calm     92% 0.00 in 0 W/m2
23:54 69.9 °F 67.4 °F 29.81 in Calm     92% 0.00 in 0 W/m2
23:59 69.8 °F 67.4 °F 29.81 in Calm     92% 0.00 in 0 W/m2
Hartford County Weather
Compliments of Weather Underground - 2 mb